sensor_id;sensor_type;location;lat;lon;timestamp;temperature;humidity
68217;DHT22;55037;52.354;4.992;2022-11-14T00:00:47;8.90;81.60
68217;DHT22;55037;52.354;4.992;2022-11-14T00:03:33;8.70;81.70
68217;DHT22;55037;52.354;4.992;2022-11-14T00:06:19;8.70;82.10
68217;DHT22;55037;52.354;4.992;2022-11-14T00:09:05;8.70;82.00
68217;DHT22;55037;52.354;4.992;2022-11-14T00:11:51;8.70;82.00
68217;DHT22;55037;52.354;4.992;2022-11-14T00:14:37;8.60;82.20
68217;DHT22;55037;52.354;4.992;2022-11-14T00:17:23;8.60;82.20
68217;DHT22;55037;52.354;4.992;2022-11-14T00:20:10;8.60;82.00
68217;DHT22;55037;52.354;4.992;2022-11-14T00:22:56;8.60;82.00
68217;DHT22;55037;52.354;4.992;2022-11-14T00:25:43;8.60;82.20
68217;DHT22;55037;52.354;4.992;2022-11-14T00:28:29;8.60;82.00
68217;DHT22;55037;52.354;4.992;2022-11-14T00:31:16;8.50;81.80
68217;DHT22;55037;52.354;4.992;2022-11-14T00:34:02;8.40;81.80
68217;DHT22;55037;52.354;4.992;2022-11-14T00:36:48;8.40;82.00
68217;DHT22;55037;52.354;4.992;2022-11-14T00:39:34;8.40;81.00
68217;DHT22;55037;52.354;4.992;2022-11-14T00:42:19;8.40;81.80
68217;DHT22;55037;52.354;4.992;2022-11-14T00:45:06;8.40;81.70
68217;DHT22;55037;52.354;4.992;2022-11-14T00:47:51;8.30;81.50
68217;DHT22;55037;52.354;4.992;2022-11-14T00:50:38;8.30;81.80
68217;DHT22;55037;52.354;4.992;2022-11-14T00:53:24;8.20;81.90
68217;DHT22;55037;52.354;4.992;2022-11-14T00:56:09;8.20;82.10
68217;DHT22;55037;52.354;4.992;2022-11-14T00:58:55;8.20;82.10
68217;DHT22;55037;52.354;4.992;2022-11-14T01:01:41;8.20;82.20
68217;DHT22;55037;52.354;4.992;2022-11-14T01:04:27;8.10;83.30
68217;DHT22;55037;52.354;4.992;2022-11-14T01:07:13;8.10;82.50
68217;DHT22;55037;52.354;4.992;2022-11-14T01:09:59;8.10;82.50
68217;DHT22;55037;52.354;4.992;2022-11-14T01:12:45;8.00;82.60
68217;DHT22;55037;52.354;4.992;2022-11-14T01:15:31;8.00;82.80
68217;DHT22;55037;52.354;4.992;2022-11-14T01:18:19;8.00;83.00
68217;DHT22;55037;52.354;4.992;2022-11-14T01:21:10;7.90;83.00
68217;DHT22;55037;52.354;4.992;2022-11-14T01:23:56;7.90;83.00
68217;DHT22;55037;52.354;4.992;2022-11-14T01:26:42;7.90;83.00
68217;DHT22;55037;52.354;4.992;2022-11-14T01:29:28;7.90;83.10
68217;DHT22;55037;52.354;4.992;2022-11-14T01:32:14;7.90;83.40
68217;DHT22;55037;52.354;4.992;2022-11-14T01:35:02;7.90;83.50
68217;DHT22;55037;52.354;4.992;2022-11-14T01:37:48;7.90;83.50
68217;DHT22;55037;52.354;4.992;2022-11-14T01:40:40;7.80;83.40
68217;DHT22;55037;52.354;4.992;2022-11-14T01:43:32;7.80;83.60
68217;DHT22;55037;52.354;4.992;2022-11-14T01:46:33;7.80;83.70
68217;DHT22;55037;52.354;4.992;2022-11-14T01:49:29;7.80;83.90
68217;DHT22;55037;52.354;4.992;2022-11-14T01:55:09;7.70;84.20
68217;DHT22;55037;52.354;4.992;2022-11-14T01:57:56;7.70;83.60
68217;DHT22;55037;52.354;4.992;2022-11-14T02:00:43;7.60;84.30
68217;DHT22;55037;52.354;4.992;2022-11-14T02:03:29;7.70;84.30
68217;DHT22;55037;52.354;4.992;2022-11-14T02:06:19;7.60;84.30
68217;DHT22;55037;52.354;4.992;2022-11-14T02:09:06;7.60;84.50
68217;DHT22;55037;52.354;4.992;2022-11-14T02:11:54;7.60;84.80
68217;DHT22;55037;52.354;4.992;2022-11-14T02:14:42;7.50;84.90
68217;DHT22;55037;52.354;4.992;2022-11-14T02:17:30;7.50;85.00
68217;DHT22;55037;52.354;4.992;2022-11-14T02:20:22;7.50;85.10
68217;DHT22;55037;52.354;4.992;2022-11-14T02:23:11;7.50;85.00
68217;DHT22;55037;52.354;4.992;2022-11-14T02:25:58;7.50;85.30
68217;DHT22;55037;52.354;4.992;2022-11-14T02:28:44;7.40;85.40
68217;DHT22;55037;52.354;4.992;2022-11-14T02:31:30;7.40;85.50
68217;DHT22;55037;52.354;4.992;2022-11-14T02:34:15;7.40;86.00
68217;DHT22;55037;52.354;4.992;2022-11-14T02:37:05;7.40;86.00
68217;DHT22;55037;52.354;4.992;2022-11-14T02:39:51;7.40;87.10
68217;DHT22;55037;52.354;4.992;2022-11-14T02:42:37;7.30;85.90
68217;DHT22;55037;52.354;4.992;2022-11-14T02:45:23;7.30;86.00
68217;DHT22;55037;52.354;4.992;2022-11-14T02:48:08;7.30;86.20
68217;DHT22;55037;52.354;4.992;2022-11-14T02:50:54;7.30;86.30
68217;DHT22;55037;52.354;4.992;2022-11-14T02:53:40;7.30;86.50
68217;DHT22;55037;52.354;4.992;2022-11-14T02:56:26;7.30;86.50
68217;DHT22;55037;52.354;4.992;2022-11-14T02:59:12;7.30;85.50
68217;DHT22;55037;52.354;4.992;2022-11-14T03:01:58;7.20;86.30
68217;DHT22;55037;52.354;4.992;2022-11-14T03:04:44;7.20;86.30
68217;DHT22;55037;52.354;4.992;2022-11-14T03:07:30;7.20;86.60
68217;DHT22;55037;52.354;4.992;2022-11-14T03:10:15;7.20;86.60
68217;DHT22;55037;52.354;4.992;2022-11-14T03:13:01;7.20;86.60
68217;DHT22;55037;52.354;4.992;2022-11-14T03:15:47;7.10;86.40
68217;DHT22;55037;52.354;4.992;2022-11-14T03:18:33;7.10;86.60
68217;DHT22;55037;52.354;4.992;2022-11-14T03:21:20;7.10;86.60
68217;DHT22;55037;52.354;4.992;2022-11-14T03:24:06;7.00;86.60
68217;DHT22;55037;52.354;4.992;2022-11-14T03:26:52;7.10;86.80
68217;DHT22;55037;52.354;4.992;2022-11-14T03:29:38;7.00;86.70
68217;DHT22;55037;52.354;4.992;2022-11-14T03:32:24;7.00;86.80
68217;DHT22;55037;52.354;4.992;2022-11-14T03:35:10;7.00;86.90
68217;DHT22;55037;52.354;4.992;2022-11-14T03:37:56;7.00;86.90
68217;DHT22;55037;52.354;4.992;2022-11-14T03:40:42;6.90;86.90
68217;DHT22;55037;52.354;4.992;2022-11-14T03:43:32;6.90;87.10
68217;DHT22;55037;52.354;4.992;2022-11-14T03:46:18;6.90;87.20
68217;DHT22;55037;52.354;4.992;2022-11-14T03:49:04;6.90;87.40
68217;DHT22;55037;52.354;4.992;2022-11-14T03:51:50;6.90;87.50
68217;DHT22;55037;52.354;4.992;2022-11-14T03:54:36;6.90;87.60
68217;DHT22;55037;52.354;4.992;2022-11-14T03:57:22;6.90;87.70
68217;DHT22;55037;52.354;4.992;2022-11-14T04:00:08;6.90;87.90
68217;DHT22;55037;52.354;4.992;2022-11-14T04:02:55;6.80;87.80
68217;DHT22;55037;52.354;4.992;2022-11-14T04:05:44;6.90;87.90
68217;DHT22;55037;52.354;4.992;2022-11-14T04:08:30;6.90;88.00
68217;DHT22;55037;52.354;4.992;2022-11-14T04:11:17;6.80;87.90
68217;DHT22;55037;52.354;4.992;2022-11-14T04:14:04;6.80;88.10
68217;DHT22;55037;52.354;4.992;2022-11-14T04:16:49;6.80;88.20
68217;DHT22;55037;52.354;4.992;2022-11-14T04:19:35;6.80;87.60
68217;DHT22;55037;52.354;4.992;2022-11-14T04:22:21;6.80;88.30
68217;DHT22;55037;52.354;4.992;2022-11-14T04:25:08;6.80;88.40
68217;DHT22;55037;52.354;4.992;2022-11-14T04:27:54;6.80;88.50
68217;DHT22;55037;52.354;4.992;2022-11-14T04:30:40;6.80;88.30
68217;DHT22;55037;52.354;4.992;2022-11-14T04:33:26;6.70;88.30
68217;DHT22;55037;52.354;4.992;2022-11-14T04:36:12;6.80;88.70
68217;DHT22;55037;52.354;4.992;2022-11-14T04:38:58;6.80;88.70
68217;DHT22;55037;52.354;4.992;2022-11-14T04:41:44;6.70;88.80
68217;DHT22;55037;52.354;4.992;2022-11-14T04:44:29;6.80;89.00
68217;DHT22;55037;52.354;4.992;2022-11-14T04:47:15;6.80;88.90
68217;DHT22;55037;52.354;4.992;2022-11-14T04:50:02;6.70;88.50
68217;DHT22;55037;52.354;4.992;2022-11-14T04:52:51;6.70;88.50
68217;DHT22;55037;52.354;4.992;2022-11-14T04:55:38;6.70;88.70
68217;DHT22;55037;52.354;4.992;2022-11-14T04:58:24;6.60;88.80
68217;DHT22;55037;52.354;4.992;2022-11-14T05:01:11;6.70;89.30
68217;DHT22;55037;52.354;4.992;2022-11-14T05:03:57;6.70;89.20
68217;DHT22;55037;52.354;4.992;2022-11-14T05:06:43;6.60;89.10
68217;DHT22;55037;52.354;4.992;2022-11-14T05:09:29;6.60;89.10
68217;DHT22;55037;52.354;4.992;2022-11-14T05:12:15;6.60;88.80
68217;DHT22;55037;52.354;4.992;2022-11-14T05:15:01;6.60;88.70
68217;DHT22;55037;52.354;4.992;2022-11-14T05:17:47;6.50;88.70
68217;DHT22;55037;52.354;4.992;2022-11-14T05:20:33;6.60;89.10
68217;DHT22;55037;52.354;4.992;2022-11-14T05:23:21;6.50;88.70
68217;DHT22;55037;52.354;4.992;2022-11-14T05:26:10;6.50;88.60
68217;DHT22;55037;52.354;4.992;2022-11-14T05:28:56;6.50;88.50
68217;DHT22;55037;52.354;4.992;2022-11-14T05:31:42;6.50;88.50
68217;DHT22;55037;52.354;4.992;2022-11-14T05:34:28;6.50;88.30
68217;DHT22;55037;52.354;4.992;2022-11-14T05:37:13;6.50;88.20
68217;DHT22;55037;52.354;4.992;2022-11-14T05:39:59;6.50;88.20
68217;DHT22;55037;52.354;4.992;2022-11-14T05:42:45;6.50;88.20
68217;DHT22;55037;52.354;4.992;2022-11-14T05:45:31;6.50;88.20
68217;DHT22;55037;52.354;4.992;2022-11-14T05:48:17;6.50;88.30
68217;DHT22;55037;52.354;4.992;2022-11-14T05:51:04;6.50;88.20
68217;DHT22;55037;52.354;4.992;2022-11-14T05:53:50;6.50;88.20
68217;DHT22;55037;52.354;4.992;2022-11-14T05:56:36;6.50;87.90
68217;DHT22;55037;52.354;4.992;2022-11-14T05:59:22;6.50;88.00
68217;DHT22;55037;52.354;4.992;2022-11-14T06:02:08;6.50;88.00
68217;DHT22;55037;52.354;4.992;2022-11-14T06:04:54;6.60;87.90
68217;DHT22;55037;52.354;4.992;2022-11-14T06:07:40;6.60;87.90
68217;DHT22;55037;52.354;4.992;2022-11-14T06:10:26;6.60;87.70
68217;DHT22;55037;52.354;4.992;2022-11-14T06:13:12;6.60;87.80
68217;DHT22;55037;52.354;4.992;2022-11-14T06:16:02;6.60;87.60
68217;DHT22;55037;52.354;4.992;2022-11-14T06:18:51;6.60;86.90
68217;DHT22;55037;52.354;4.992;2022-11-14T06:21:37;6.60;87.80
68217;DHT22;55037;52.354;4.992;2022-11-14T06:24:23;6.60;87.60
68217;DHT22;55037;52.354;4.992;2022-11-14T06:27:09;6.60;87.60
68217;DHT22;55037;52.354;4.992;2022-11-14T06:29:55;6.60;87.60
68217;DHT22;55037;52.354;4.992;2022-11-14T06:32:41;6.60;87.30
68217;DHT22;55037;52.354;4.992;2022-11-14T06:35:26;6.60;87.40
68217;DHT22;55037;52.354;4.992;2022-11-14T06:38:12;6.60;87.50
68217;DHT22;55037;52.354;4.992;2022-11-14T06:41:03;6.60;87.40
68217;DHT22;55037;52.354;4.992;2022-11-14T06:43:50;6.60;87.30
68217;DHT22;55037;52.354;4.992;2022-11-14T06:46:38;6.60;87.30
68217;DHT22;55037;52.354;4.992;2022-11-14T06:49:24;6.60;86.30
68217;DHT22;55037;52.354;4.992;2022-11-14T06:52:10;6.60;87.20
68217;DHT22;55037;52.354;4.992;2022-11-14T06:54:55;6.50;87.10
68217;DHT22;55037;52.354;4.992;2022-11-14T06:57:41;6.60;86.80
68217;DHT22;55037;52.354;4.992;2022-11-14T07:00:27;6.60;86.60
68217;DHT22;55037;52.354;4.992;2022-11-14T07:03:13;6.60;86.60
68217;DHT22;55037;52.354;4.992;2022-11-14T07:06:03;6.60;86.60
68217;DHT22;55037;52.354;4.992;2022-11-14T07:08:50;6.60;86.40
68217;DHT22;55037;52.354;4.992;2022-11-14T07:11:36;6.60;86.50
68217;DHT22;55037;52.354;4.992;2022-11-14T07:14:22;6.60;86.50
68217;DHT22;55037;52.354;4.992;2022-11-14T07:17:08;6.60;86.20
68217;DHT22;55037;52.354;4.992;2022-11-14T07:19:54;6.60;86.10
68217;DHT22;55037;52.354;4.992;2022-11-14T07:22:40;6.70;86.10
68217;DHT22;55037;52.354;4.992;2022-11-14T07:25:26;6.70;86.80
68217;DHT22;55037;52.354;4.992;2022-11-14T07:28:12;6.80;84.70
68217;DHT22;55037;52.354;4.992;2022-11-14T07:30:58;6.80;85.40
68217;DHT22;55037;52.354;4.992;2022-11-14T07:33:44;6.80;85.20
68217;DHT22;55037;52.354;4.992;2022-11-14T07:36:30;6.90;85.00
68217;DHT22;55037;52.354;4.992;2022-11-14T07:39:16;6.90;84.80
68217;DHT22;55037;52.354;4.992;2022-11-14T07:42:02;7.00;84.60
68217;DHT22;55037;52.354;4.992;2022-11-14T07:44:48;7.00;84.40
68217;DHT22;55037;52.354;4.992;2022-11-14T07:47:33;7.00;84.20
68217;DHT22;55037;52.354;4.992;2022-11-14T07:50:19;7.10;84.10
68217;DHT22;55037;52.354;4.992;2022-11-14T07:53:05;7.10;83.70
68217;DHT22;55037;52.354;4.992;2022-11-14T07:55:51;7.20;83.50
68217;DHT22;55037;52.354;4.992;2022-11-14T07:58:39;7.30;82.20
68217;DHT22;55037;52.354;4.992;2022-11-14T08:01:25;7.30;83.00
68217;DHT22;55037;52.354;4.992;2022-11-14T08:04:11;7.30;82.70
68217;DHT22;55037;52.354;4.992;2022-11-14T08:06:57;7.40;82.50
68217;DHT22;55037;52.354;4.992;2022-11-14T08:09:42;7.50;82.30
68217;DHT22;55037;52.354;4.992;2022-11-14T08:12:28;7.70;84.00
68217;DHT22;55037;52.354;4.992;2022-11-14T08:15:14;9.50;83.70
68217;DHT22;55037;52.354;4.992;2022-11-14T08:18:00;12.30;74.00
68217;DHT22;55037;52.354;4.992;2022-11-14T08:20:47;15.00;63.20
68217;DHT22;55037;52.354;4.992;2022-11-14T08:23:33;16.80;52.30
68217;DHT22;55037;52.354;4.992;2022-11-14T08:26:19;18.20;48.40
68217;DHT22;55037;52.354;4.992;2022-11-14T08:29:05;20.40;43.50
68217;DHT22;55037;52.354;4.992;2022-11-14T08:31:51;23.70;33.50
68217;DHT22;55037;52.354;4.992;2022-11-14T08:34:44;25.40;28.50
68217;DHT22;55037;52.354;4.992;2022-11-14T08:37:30;24.80;28.20
68217;DHT22;55037;52.354;4.992;2022-11-14T08:40:16;24.60;28.20
68217;DHT22;55037;52.354;4.992;2022-11-14T08:43:02;24.50;27.50
68217;DHT22;55037;52.354;4.992;2022-11-14T08:45:48;23.90;27.90
68217;DHT22;55037;52.354;4.992;2022-11-14T08:48:34;23.70;28.20
68217;DHT22;55037;52.354;4.992;2022-11-14T08:51:20;24.40;27.70
68217;DHT22;55037;52.354;4.992;2022-11-14T08:54:06;25.20;26.20
68217;DHT22;55037;52.354;4.992;2022-11-14T08:56:52;26.00;25.70
68217;DHT22;55037;52.354;4.992;2022-11-14T08:59:38;26.40;24.90
68217;DHT22;55037;52.354;4.992;2022-11-14T09:02:23;27.00;24.00
68217;DHT22;55037;52.354;4.992;2022-11-14T09:05:09;26.90;23.70
68217;DHT22;55037;52.354;4.992;2022-11-14T09:07:55;26.50;23.80
68217;DHT22;55037;52.354;4.992;2022-11-14T09:10:42;26.30;23.80
68217;DHT22;55037;52.354;4.992;2022-11-14T09:13:31;26.10;23.90
68217;DHT22;55037;52.354;4.992;2022-11-14T09:16:17;26.00;24.00
68217;DHT22;55037;52.354;4.992;2022-11-14T09:19:03;26.70;23.50
68217;DHT22;55037;52.354;4.992;2022-11-14T09:21:51;27.40;23.10
68217;DHT22;55037;52.354;4.992;2022-11-14T09:24:37;28.20;21.80
68217;DHT22;55037;52.354;4.992;2022-11-14T09:27:25;28.00;21.80
68217;DHT22;55037;52.354;4.992;2022-11-14T09:30:12;28.00;21.90
68217;DHT22;55037;52.354;4.992;2022-11-14T09:32:59;28.90;21.60
68217;DHT22;55037;52.354;4.992;2022-11-14T09:35:57;29.20;20.60
68217;DHT22;55037;52.354;4.992;2022-11-14T09:38:44;29.20;20.70
68217;DHT22;55037;52.354;4.992;2022-11-14T09:44:39;30.20;19.50
68217;DHT22;55037;52.354;4.992;2022-11-14T09:47:47;29.90;19.70
68217;DHT22;55037;52.354;4.992;2022-11-14T09:50:37;29.90;19.80
68217;DHT22;55037;52.354;4.992;2022-11-14T09:53:32;29.80;19.40
68217;DHT22;55037;52.354;4.992;2022-11-14T09:56:22;29.10;20.10
68217;DHT22;55037;52.354;4.992;2022-11-14T09:59:11;28.60;20.60
68217;DHT22;55037;52.354;4.992;2022-11-14T10:11:09;30.10;19.60
68217;DHT22;55037;52.354;4.992;2022-11-14T10:23:14;31.90;18.30
68217;DHT22;55037;52.354;4.992;2022-11-14T10:26:26;32.80;17.60
68217;DHT22;55037;52.354;4.992;2022-11-14T10:39:20;32.20;17.40
68217;DHT22;55037;52.354;4.992;2022-11-14T10:42:11;32.10;17.70
68217;DHT22;55037;52.354;4.992;2022-11-14T10:45:03;32.50;17.50
68217;DHT22;55037;52.354;4.992;2022-11-14T10:47:58;32.90;17.20
68217;DHT22;55037;52.354;4.992;2022-11-14T10:50:50;32.70;17.60
68217;DHT22;55037;52.354;4.992;2022-11-14T10:56:49;33.00;17.30
68217;DHT22;55037;52.354;4.992;2022-11-14T10:59:35;33.50;16.90
68217;DHT22;55037;52.354;4.992;2022-11-14T11:02:21;34.30;16.70
68217;DHT22;55037;52.354;4.992;2022-11-14T11:05:14;34.70;16.10
68217;DHT22;55037;52.354;4.992;2022-11-14T11:08:01;34.00;16.50
68217;DHT22;55037;52.354;4.992;2022-11-14T11:11:25;33.90;16.50
68217;DHT22;55037;52.354;4.992;2022-11-14T11:14:18;33.70;16.90
68217;DHT22;55037;52.354;4.992;2022-11-14T11:20:23;34.80;16.40
68217;DHT22;55037;52.354;4.992;2022-11-14T11:26:05;35.40;15.60
68217;DHT22;55037;52.354;4.992;2022-11-14T11:29:05;34.80;15.90
68217;DHT22;55037;52.354;4.992;2022-11-14T11:31:54;34.50;16.20
68217;DHT22;55037;52.354;4.992;2022-11-14T11:34:40;34.80;16.40
68217;DHT22;55037;52.354;4.992;2022-11-14T11:37:48;36.00;15.50
68217;DHT22;55037;52.354;4.992;2022-11-14T11:40:39;36.30;15.10
68217;DHT22;55037;52.354;4.992;2022-11-14T11:52:33;37.00;14.60
68217;DHT22;55037;52.354;4.992;2022-11-14T11:55:24;35.90;15.40
68217;DHT22;55037;52.354;4.992;2022-11-14T11:58:21;35.50;15.50
68217;DHT22;55037;52.354;4.992;2022-11-14T12:01:10;35.00;15.70
68217;DHT22;55037;52.354;4.992;2022-11-14T12:03:56;34.30;16.60
68217;DHT22;55037;52.354;4.992;2022-11-14T12:06:53;35.10;16.20
68217;DHT22;55037;52.354;4.992;2022-11-14T12:09:44;35.20;15.70
68217;DHT22;55037;52.354;4.992;2022-11-14T12:16:27;32.40;17.50
68217;DHT22;55037;52.354;4.992;2022-11-14T12:23:00;30.30;19.50
68217;DHT22;55037;52.354;4.992;2022-11-14T12:32:18;31.10;19.00
68217;DHT22;55037;52.354;4.992;2022-11-14T12:35:15;30.50;19.80
68217;DHT22;55037;52.354;4.992;2022-11-14T12:38:11;30.70;19.40
68217;DHT22;55037;52.354;4.992;2022-11-14T12:40:59;30.50;19.60
68217;DHT22;55037;52.354;4.992;2022-11-14T12:43:46;30.50;19.50
68217;DHT22;55037;52.354;4.992;2022-11-14T12:47:10;29.50;20.20
68217;DHT22;55037;52.354;4.992;2022-11-14T12:49:58;28.80;22.10
68217;DHT22;55037;52.354;4.992;2022-11-14T12:52:49;29.70;20.90
68217;DHT22;55037;52.354;4.992;2022-11-14T12:58:43;30.10;20.10
68217;DHT22;55037;52.354;4.992;2022-11-14T13:04:45;29.50;21.10
68217;DHT22;55037;52.354;4.992;2022-11-14T13:08:02;29.30;21.40
68217;DHT22;55037;52.354;4.992;2022-11-14T13:10:52;29.00;21.40
68217;DHT22;55037;52.354;4.992;2022-11-14T13:14:00;28.50;21.90
68217;DHT22;55037;52.354;4.992;2022-11-14T13:17:25;27.50;22.80
68217;DHT22;55037;52.354;4.992;2022-11-14T13:20:32;26.50;23.90
68217;DHT22;55037;52.354;4.992;2022-11-14T13:35:38;25.80;25.40
68217;DHT22;55037;52.354;4.992;2022-11-14T13:50:38;23.10;28.80
68217;DHT22;55037;52.354;4.992;2022-11-14T13:53:27;22.80;29.10
68217;DHT22;55037;52.354;4.992;2022-11-14T13:56:33;22.40;29.60
68217;DHT22;55037;52.354;4.992;2022-11-14T13:59:47;22.00;30.30
68217;DHT22;55037;52.354;4.992;2022-11-14T14:15:38;20.40;34.30
68217;DHT22;55037;52.354;4.992;2022-11-14T14:22:18;18.90;37.50
68217;DHT22;55037;52.354;4.992;2022-11-14T14:25:22;17.60;39.30
68217;DHT22;55037;52.354;4.992;2022-11-14T14:31:22;15.50;46.30
68217;DHT22;55037;52.354;4.992;2022-11-14T14:34:23;15.30;46.70
68217;DHT22;55037;52.354;4.992;2022-11-14T14:37:18;15.10;48.00
68217;DHT22;55037;52.354;4.992;2022-11-14T14:40:06;14.80;49.10
68217;DHT22;55037;52.354;4.992;2022-11-14T14:42:54;14.60;50.00
68217;DHT22;55037;52.354;4.992;2022-11-14T14:45:47;14.20;52.10
68217;DHT22;55037;52.354;4.992;2022-11-14T14:48:39;13.80;53.20
68217;DHT22;55037;52.354;4.992;2022-11-14T14:51:34;13.40;55.60
68217;DHT22;55037;52.354;4.992;2022-11-14T14:54:26;12.90;57.60
68217;DHT22;55037;52.354;4.992;2022-11-14T14:57:17;12.60;59.50
68217;DHT22;55037;52.354;4.992;2022-11-14T15:00:20;12.40;60.70
68217;DHT22;55037;52.354;4.992;2022-11-14T15:03:08;12.30;61.10
68217;DHT22;55037;52.354;4.992;2022-11-14T15:06:03;12.10;61.70
68217;DHT22;55037;52.354;4.992;2022-11-14T15:08:49;11.90;61.90
68217;DHT22;55037;52.354;4.992;2022-11-14T15:11:39;11.70;62.80
68217;DHT22;55037;52.354;4.992;2022-11-14T15:14:29;11.50;63.70
68217;DHT22;55037;52.354;4.992;2022-11-14T15:17:15;11.20;64.70
68217;DHT22;55037;52.354;4.992;2022-11-14T15:20:02;11.00;65.90
68217;DHT22;55037;52.354;4.992;2022-11-14T15:26:02;11.00;67.10
68217;DHT22;55037;52.354;4.992;2022-11-14T15:28:48;10.90;67.10
68217;DHT22;55037;52.354;4.992;2022-11-14T15:31:35;10.90;66.80
68217;DHT22;55037;52.354;4.992;2022-11-14T15:34:32;10.80;67.30
68217;DHT22;55037;52.354;4.992;2022-11-14T15:37:20;10.60;67.40
68217;DHT22;55037;52.354;4.992;2022-11-14T15:40:20;10.40;67.20
68217;DHT22;55037;52.354;4.992;2022-11-14T15:46:47;10.10;69.40
68217;DHT22;55037;52.354;4.992;2022-11-14T15:49:33;9.90;70.00
68217;DHT22;55037;52.354;4.992;2022-11-14T15:52:24;9.70;70.70
68217;DHT22;55037;52.354;4.992;2022-11-14T15:55:19;9.70;71.40
68217;DHT22;55037;52.354;4.992;2022-11-14T15:58:09;9.50;71.70
68217;DHT22;55037;52.354;4.992;2022-11-14T16:01:17;9.40;72.60
68217;DHT22;55037;52.354;4.992;2022-11-14T16:04:31;9.40;73.10
68217;DHT22;55037;52.354;4.992;2022-11-14T16:07:16;9.30;73.60
68217;DHT22;55037;52.354;4.992;2022-11-14T16:10:02;9.20;73.80
68217;DHT22;55037;52.354;4.992;2022-11-14T16:12:48;9.10;74.30
68217;DHT22;55037;52.354;4.992;2022-11-14T16:15:37;9.10;74.70
68217;DHT22;55037;52.354;4.992;2022-11-14T16:18:23;9.00;75.00
68217;DHT22;55037;52.354;4.992;2022-11-14T16:21:13;8.90;75.20
68217;DHT22;55037;52.354;4.992;2022-11-14T16:24:00;8.90;75.50
68217;DHT22;55037;52.354;4.992;2022-11-14T16:26:46;8.90;75.80
68217;DHT22;55037;52.354;4.992;2022-11-14T16:29:33;8.90;76.10
68217;DHT22;55037;52.354;4.992;2022-11-14T16:32:19;8.80;76.40
68217;DHT22;55037;52.354;4.992;2022-11-14T16:35:19;8.70;76.70
68217;DHT22;55037;52.354;4.992;2022-11-14T16:38:05;8.60;76.80
68217;DHT22;55037;52.354;4.992;2022-11-14T16:40:51;8.60;78.50
68217;DHT22;55037;52.354;4.992;2022-11-14T16:43:36;8.60;77.80
68217;DHT22;55037;52.354;4.992;2022-11-14T16:46:23;8.60;78.10
68217;DHT22;55037;52.354;4.992;2022-11-14T16:49:16;8.50;77.50
68217;DHT22;55037;52.354;4.992;2022-11-14T16:52:03;8.50;78.30
68217;DHT22;55037;52.354;4.992;2022-11-14T16:54:51;8.50;78.40
68217;DHT22;55037;52.354;4.992;2022-11-14T16:57:37;8.50;78.70
68217;DHT22;55037;52.354;4.992;2022-11-14T17:00:23;8.40;77.90
68217;DHT22;55037;52.354;4.992;2022-11-14T17:03:09;8.40;78.80
68217;DHT22;55037;52.354;4.992;2022-11-14T17:05:55;8.40;78.90
68217;DHT22;55037;52.354;4.992;2022-11-14T17:08:41;8.40;79.10
68217;DHT22;55037;52.354;4.992;2022-11-14T17:11:27;8.40;79.20
68217;DHT22;55037;52.354;4.992;2022-11-14T17:14:13;8.30;79.50
68217;DHT22;55037;52.354;4.992;2022-11-14T17:16:59;8.30;79.70
68217;DHT22;55037;52.354;4.992;2022-11-14T17:19:48;8.30;79.20
68217;DHT22;55037;52.354;4.992;2022-11-14T17:22:33;8.30;80.30
68217;DHT22;55037;52.354;4.992;2022-11-14T17:25:20;8.30;80.40
68217;DHT22;55037;52.354;4.992;2022-11-14T17:28:06;8.20;80.40
68217;DHT22;55037;52.354;4.992;2022-11-14T17:30:52;8.20;80.70
68217;DHT22;55037;52.354;4.992;2022-11-14T17:33:38;8.30;80.80
68217;DHT22;55037;52.354;4.992;2022-11-14T17:36:28;8.20;80.80
68217;DHT22;55037;52.354;4.992;2022-11-14T17:39:14;8.20;81.00
68217;DHT22;55037;52.354;4.992;2022-11-14T17:42:00;8.10;81.30
68217;DHT22;55037;52.354;4.992;2022-11-14T17:44:48;8.10;81.40
68217;DHT22;55037;52.354;4.992;2022-11-14T17:47:34;8.10;81.50
68217;DHT22;55037;52.354;4.992;2022-11-14T17:50:20;8.10;81.70
68217;DHT22;55037;52.354;4.992;2022-11-14T17:53:06;8.00;81.70
68217;DHT22;55037;52.354;4.992;2022-11-14T17:55:55;8.00;82.00
68217;DHT22;55037;52.354;4.992;2022-11-14T17:58:45;8.00;82.10
68217;DHT22;55037;52.354;4.992;2022-11-14T18:01:31;7.90;82.30
68217;DHT22;55037;52.354;4.992;2022-11-14T18:04:17;8.00;82.50
68217;DHT22;55037;52.354;4.992;2022-11-14T18:07:03;8.00;82.40
68217;DHT22;55037;52.354;4.992;2022-11-14T18:09:49;7.90;81.90
68217;DHT22;55037;52.354;4.992;2022-11-14T18:12:35;7.90;82.70
68217;DHT22;55037;52.354;4.992;2022-11-14T18:15:21;7.90;82.80
68217;DHT22;55037;52.354;4.992;2022-11-14T18:18:12;7.90;82.90
68217;DHT22;55037;52.354;4.992;2022-11-14T18:21:04;7.80;83.00
68217;DHT22;55037;52.354;4.992;2022-11-14T18:23:55;7.80;83.10
68217;DHT22;55037;52.354;4.992;2022-11-14T18:26:41;7.80;83.20
68217;DHT22;55037;52.354;4.992;2022-11-14T18:29:27;7.70;82.60
68217;DHT22;55037;52.354;4.992;2022-11-14T18:32:13;7.70;83.60
68217;DHT22;55037;52.354;4.992;2022-11-14T18:35:00;7.70;83.60
68217;DHT22;55037;52.354;4.992;2022-11-14T18:37:45;7.60;83.70
68217;DHT22;55037;52.354;4.992;2022-11-14T18:40:31;7.60;84.00
68217;DHT22;55037;52.354;4.992;2022-11-14T18:43:17;8.10;84.30
68217;DHT22;55037;52.354;4.992;2022-11-14T18:46:08;7.60;84.50
68217;DHT22;55037;52.354;4.992;2022-11-14T18:48:55;7.60;84.60
68217;DHT22;55037;52.354;4.992;2022-11-14T18:51:44;7.50;84.80
68217;DHT22;55037;52.354;4.992;2022-11-14T18:54:30;7.50;84.90
68217;DHT22;55037;52.354;4.992;2022-11-14T18:57:16;7.60;84.90
68217;DHT22;55037;52.354;4.992;2022-11-14T19:00:03;7.60;84.30
68217;DHT22;55037;52.354;4.992;2022-11-14T19:02:50;7.60;85.10
68217;DHT22;55037;52.354;4.992;2022-11-14T19:05:36;7.60;85.00
68217;DHT22;55037;52.354;4.992;2022-11-14T19:08:23;7.60;85.10
68217;DHT22;55037;52.354;4.992;2022-11-14T19:11:11;7.70;85.10
68217;DHT22;55037;52.354;4.992;2022-11-14T19:14:17;7.70;85.10
68217;DHT22;55037;52.354;4.992;2022-11-14T19:17:03;7.70;84.90
68217;DHT22;55037;52.354;4.992;2022-11-14T19:19:51;7.70;84.70
68217;DHT22;55037;52.354;4.992;2022-11-14T19:22:39;7.70;84.70
68217;DHT22;55037;52.354;4.992;2022-11-14T19:25:25;7.70;84.70
68217;DHT22;55037;52.354;4.992;2022-11-14T19:28:11;7.70;83.80
68217;DHT22;55037;52.354;4.992;2022-11-14T19:31:04;7.70;84.60
68217;DHT22;55037;52.354;4.992;2022-11-14T19:33:51;7.70;84.70
68217;DHT22;55037;52.354;4.992;2022-11-14T19:36:36;7.70;85.00
68217;DHT22;55037;52.354;4.992;2022-11-14T19:39:42;7.70;84.80
68217;DHT22;55037;52.354;4.992;2022-11-14T19:42:28;7.70;85.00
68217;DHT22;55037;52.354;4.992;2022-11-14T19:45:14;7.60;85.30
68217;DHT22;55037;52.354;4.992;2022-11-14T19:48:00;7.60;85.30
68217;DHT22;55037;52.354;4.992;2022-11-14T19:50:46;7.60;85.30
68217;DHT22;55037;52.354;4.992;2022-11-14T19:53:33;7.60;85.30
68217;DHT22;55037;52.354;4.992;2022-11-14T19:56:21;7.60;85.10
68217;DHT22;55037;52.354;4.992;2022-11-14T19:59:08;7.60;85.30
68217;DHT22;55037;52.354;4.992;2022-11-14T20:02:00;7.60;85.30